Terminal Aerodrome Forecast
Issued by NWS Cleveland, OH

Home | Current Version | Previous Version | Graphics & Text | Print | Product List | Glossary On
Versions: 1 2 3 4 5 6 7 8 9 10 11 12 13 14 15 16 17 18 19 20 21 22 23 24 25 26 27 28
254
FTUS41 KCLE 290540
TAFCLE
TAF
KCLE 290540Z 2906/3012 VRB03KT P6SM BKN200
     FM291700 01008KT P6SM SCT050 BKN150
     FM300200 VRB04KT P6SM SCT060 BKN150=

USA.gov is the U.S. government's official web portal to all federal, state and local government web resources and services.